Portada
METAR-TAF:

METAR-TAF

Aeroports :

Franklin County, Vermont, Estats Units d'Amèrica

latitud: 44-56-25N, longitud: 073-05-51W, altitud: 69 m

Observació

L'informe es va fer fa 1 hora i 2 minuts, a les 13:36 UTC
Vent 4 kt del Sud/Sud-Est
Temperatura -6°C
Humitat 86%
Pressió 1026 hPa
Visibilitat: 2.4 km
Cel cobert a una alçada de 1100 ft
neu

METAR: KFSO 181336Z AUTO 16004KT 1 1/2SM -SN OVC011 M06/M08 A3029 RMK AO2 T10601082

Hora: 09:38 (14:38 UTC)


TAF: manca

Observacions i pronòstics meteorològics de més de 4000 aeroports (METAR i TAF).

Les estacions disponibles són els punts grocs i vermells al mapa.

Posi el ratolí al punt desitjat per veure el nom de l'estació.

Feu clic per veure les observacions i els pronòstics meteorològics.

Per canviar el mapa: feu clic els botons verds amb una creu de color negre per apropar; al botó verd amb un guió per allunyar la imatge; o en les fletxes verdes per a mapes adjacents.


METAR-TAF: